sensor_id;sensor_type;location;lat;lon;timestamp;P1;durP1;ratioP1;P2;durP2;ratioP2
74972;SDS011;63529;56.320;43.990;2023-04-25T00:00:28;7.32;;;3.30;;
74972;SDS011;63529;56.320;43.990;2023-04-25T00:02:54;10.38;;;3.33;;
74972;SDS011;63529;56.320;43.990;2023-04-25T00:05:22;7.05;;;2.97;;
74972;SDS011;63529;56.320;43.990;2023-04-25T00:07:49;7.10;;;3.15;;
74972;SDS011;63529;56.320;43.990;2023-04-25T00:10:15;4.57;;;2.67;;
74972;SDS011;63529;56.320;43.990;2023-04-25T00:12:41;7.35;;;3.03;;
74972;SDS011;63529;56.320;43.990;2023-04-25T00:15:07;6.28;;;3.05;;
74972;SDS011;63529;56.320;43.990;2023-04-25T00:17:34;6.85;;;2.95;;
74972;SDS011;63529;56.320;43.990;2023-04-25T00:20:01;5.50;;;2.97;;
74972;SDS011;63529;56.320;43.990;2023-04-25T00:22:30;5.05;;;2.92;;
74972;SDS011;63529;56.320;43.990;2023-04-25T00:24:56;5.68;;;2.45;;
74972;SDS011;63529;56.320;43.990;2023-04-25T00:27:25;7.13;;;2.72;;
74972;SDS011;63529;56.320;43.990;2023-04-25T00:29:51;4.55;;;2.42;;
74972;SDS011;63529;56.320;43.990;2023-04-25T00:32:17;7.30;;;2.90;;
74972;SDS011;63529;56.320;43.990;2023-04-25T00:34:43;3.70;;;2.80;;
74972;SDS011;63529;56.320;43.990;2023-04-25T00:37:09;5.13;;;2.85;;
74972;SDS011;63529;56.320;43.990;2023-04-25T00:39:35;4.57;;;2.55;;
74972;SDS011;63529;56.320;43.990;2023-04-25T00:42:01;3.97;;;2.58;;
74972;SDS011;63529;56.320;43.990;2023-04-25T00:44:29;5.05;;;2.72;;
74972;SDS011;63529;56.320;43.990;2023-04-25T00:46:56;5.55;;;2.30;;
74972;SDS011;63529;56.320;43.990;2023-04-25T00:49:22;5.68;;;2.72;;
74972;SDS011;63529;56.320;43.990;2023-04-25T00:51:48;8.07;;;2.72;;
74972;SDS011;63529;56.320;43.990;2023-04-25T00:54:14;4.40;;;2.67;;
74972;SDS011;63529;56.320;43.990;2023-04-25T00:56:41;9.77;;;3.10;;
74972;SDS011;63529;56.320;43.990;2023-04-25T00:59:08;4.53;;;2.47;;
74972;SDS011;63529;56.320;43.990;2023-04-25T01:01:35;10.00;;;2.90;;
74972;SDS011;63529;56.320;43.990;2023-04-25T01:04:01;4.65;;;2.33;;
74972;SDS011;63529;56.320;43.990;2023-04-25T01:06:27;6.75;;;2.20;;
74972;SDS011;63529;56.320;43.990;2023-04-25T01:08:53;4.30;;;2.40;;
74972;SDS011;63529;56.320;43.990;2023-04-25T01:11:19;3.65;;;2.50;;
74972;SDS011;63529;56.320;43.990;2023-04-25T01:13:45;5.00;;;2.80;;
74972;SDS011;63529;56.320;43.990;2023-04-25T01:16:11;8.35;;;2.53;;
74972;SDS011;63529;56.320;43.990;2023-04-25T01:18:40;7.28;;;2.80;;
74972;SDS011;63529;56.320;43.990;2023-04-25T01:21:08;9.60;;;2.80;;
74972;SDS011;63529;56.320;43.990;2023-04-25T01:23:39;5.75;;;2.45;;
74972;SDS011;63529;56.320;43.990;2023-04-25T01:26:06;18.42;;;3.35;;
74972;SDS011;63529;56.320;43.990;2023-04-25T01:28:34;6.45;;;2.65;;
74972;SDS011;63529;56.320;43.990;2023-04-25T01:31:00;5.15;;;3.05;;
74972;SDS011;63529;56.320;43.990;2023-04-25T01:33:26;4.85;;;2.38;;
74972;SDS011;63529;56.320;43.990;2023-04-25T01:35:52;5.32;;;2.55;;
74972;SDS011;63529;56.320;43.990;2023-04-25T01:38:19;5.68;;;2.42;;
74972;SDS011;63529;56.320;43.990;2023-04-25T01:40:45;6.68;;;2.53;;
74972;SDS011;63529;56.320;43.990;2023-04-25T01:43:12;5.95;;;2.75;;
74972;SDS011;63529;56.320;43.990;2023-04-25T01:45:39;5.80;;;2.45;;
74972;SDS011;63529;56.320;43.990;2023-04-25T01:48:10;4.18;;;2.80;;
74972;SDS011;63529;56.320;43.990;2023-04-25T01:50:39;6.78;;;2.72;;
74972;SDS011;63529;56.320;43.990;2023-04-25T01:53:06;7.32;;;3.22;;
74972;SDS011;63529;56.320;43.990;2023-04-25T01:55:32;4.18;;;2.50;;
74972;SDS011;63529;56.320;43.990;2023-04-25T01:58:05;40.97;;;4.93;;
74972;SDS011;63529;56.320;43.990;2023-04-25T02:01:10;5.43;;;2.65;;
74972;SDS011;63529;56.320;43.990;2023-04-25T02:03:42;4.55;;;2.85;;
74972;SDS011;63529;56.320;43.990;2023-04-25T02:06:28;3.45;;;2.17;;
74972;SDS011;63529;56.320;43.990;2023-04-25T02:08:57;5.70;;;2.67;;
74972;SDS011;63529;56.320;43.990;2023-04-25T02:11:23;5.57;;;2.70;;
74972;SDS011;63529;56.320;43.990;2023-04-25T02:14:07;10.77;;;3.88;;
74972;SDS011;63529;56.320;43.990;2023-04-25T02:16:45;7.75;;;2.80;;
74972;SDS011;63529;56.320;43.990;2023-04-25T02:19:12;6.00;;;2.70;;
74972;SDS011;63529;56.320;43.990;2023-04-25T02:21:38;4.47;;;2.80;;
74972;SDS011;63529;56.320;43.990;2023-04-25T02:24:04;5.75;;;2.75;;
74972;SDS011;63529;56.320;43.990;2023-04-25T02:26:32;6.82;;;2.38;;
74972;SDS011;63529;56.320;43.990;2023-04-25T02:28:58;4.88;;;2.47;;
74972;SDS011;63529;56.320;43.990;2023-04-25T02:31:24;5.57;;;2.50;;
74972;SDS011;63529;56.320;43.990;2023-04-25T02:33:50;4.00;;;2.40;;
74972;SDS011;63529;56.320;43.990;2023-04-25T02:36:17;6.95;;;2.58;;
74972;SDS011;63529;56.320;43.990;2023-04-25T02:38:42;5.22;;;2.58;;
74972;SDS011;63529;56.320;43.990;2023-04-25T02:41:08;7.35;;;2.72;;
74972;SDS011;63529;56.320;43.990;2023-04-25T02:43:34;6.10;;;2.20;;
74972;SDS011;63529;56.320;43.990;2023-04-25T02:46:00;6.95;;;2.50;;
74972;SDS011;63529;56.320;43.990;2023-04-25T02:48:26;10.48;;;2.33;;
74972;SDS011;63529;56.320;43.990;2023-04-25T02:50:52;8.07;;;2.97;;
74972;SDS011;63529;56.320;43.990;2023-04-25T02:53:18;7.80;;;2.60;;
74972;SDS011;63529;56.320;43.990;2023-04-25T02:55:48;6.90;;;2.67;;
74972;SDS011;63529;56.320;43.990;2023-04-25T02:58:13;9.15;;;2.35;;
74972;SDS011;63529;56.320;43.990;2023-04-25T03:00:47;9.52;;;2.35;;
74972;SDS011;63529;56.320;43.990;2023-04-25T03:03:12;5.25;;;2.00;;
74972;SDS011;63529;56.320;43.990;2023-04-25T03:05:38;7.47;;;2.65;;
74972;SDS011;63529;56.320;43.990;2023-04-25T03:08:05;6.05;;;2.63;;
74972;SDS011;63529;56.320;43.990;2023-04-25T03:10:32;8.68;;;2.92;;
74972;SDS011;63529;56.320;43.990;2023-04-25T03:13:02;5.47;;;2.17;;
74972;SDS011;63529;56.320;43.990;2023-04-25T03:15:28;5.22;;;2.20;;
74972;SDS011;63529;56.320;43.990;2023-04-25T03:17:54;4.95;;;2.40;;
74972;SDS011;63529;56.320;43.990;2023-04-25T03:20:22;6.03;;;2.17;;
74972;SDS011;63529;56.320;43.990;2023-04-25T03:22:48;5.93;;;2.40;;
74972;SDS011;63529;56.320;43.990;2023-04-25T03:25:14;9.82;;;2.55;;
74972;SDS011;63529;56.320;43.990;2023-04-25T03:27:41;6.63;;;2.60;;
74972;SDS011;63529;56.320;43.990;2023-04-25T03:30:07;6.15;;;2.60;;
74972;SDS011;63529;56.320;43.990;2023-04-25T03:32:35;8.07;;;2.75;;
74972;SDS011;63529;56.320;43.990;2023-04-25T03:35:00;19.95;;;3.78;;
74972;SDS011;63529;56.320;43.990;2023-04-25T03:37:29;17.60;;;3.28;;
74972;SDS011;63529;56.320;43.990;2023-04-25T03:39:54;9.38;;;2.72;;
74972;SDS011;63529;56.320;43.990;2023-04-25T03:42:23;6.28;;;2.40;;
74972;SDS011;63529;56.320;43.990;2023-04-25T03:44:49;6.60;;;2.40;;
74972;SDS011;63529;56.320;43.990;2023-04-25T03:47:15;8.95;;;2.90;;
74972;SDS011;63529;56.320;43.990;2023-04-25T03:49:41;28.55;;;3.95;;
74972;SDS011;63529;56.320;43.990;2023-04-25T03:52:07;6.50;;;3.05;;
74972;SDS011;63529;56.320;43.990;2023-04-25T03:54:37;12.38;;;3.40;;
74972;SDS011;63529;56.320;43.990;2023-04-25T03:57:29;13.70;;;3.40;;
74972;SDS011;63529;56.320;43.990;2023-04-25T03:59:55;44.17;;;6.70;;
74972;SDS011;63529;56.320;43.990;2023-04-25T04:02:21;24.00;;;6.30;;
74972;SDS011;63529;56.320;43.990;2023-04-25T04:04:48;9.85;;;2.97;;
74972;SDS011;63529;56.320;43.990;2023-04-25T04:07:15;11.55;;;3.50;;
74972;SDS011;63529;56.320;43.990;2023-04-25T04:09:44;17.70;;;3.90;;
74972;SDS011;63529;56.320;43.990;2023-04-25T04:12:16;10.38;;;2.70;;
74972;SDS011;63529;56.320;43.990;2023-04-25T04:14:42;7.70;;;2.85;;
74972;SDS011;63529;56.320;43.990;2023-04-25T04:17:08;7.53;;;2.70;;
74972;SDS011;63529;56.320;43.990;2023-04-25T04:19:35;13.13;;;3.13;;
74972;SDS011;63529;56.320;43.990;2023-04-25T04:22:11;8.18;;;2.55;;
74972;SDS011;63529;56.320;43.990;2023-04-25T04:24:37;13.73;;;3.15;;
74972;SDS011;63529;56.320;43.990;2023-04-25T04:29:57;13.63;;;3.10;;
74972;SDS011;63529;56.320;43.990;2023-04-25T04:32:32;15.90;;;3.28;;
74972;SDS011;63529;56.320;43.990;2023-04-25T04:35:00;41.08;;;5.10;;
74972;SDS011;63529;56.320;43.990;2023-04-25T04:39:56;12.27;;;3.60;;
74972;SDS011;63529;56.320;43.990;2023-04-25T04:42:28;15.75;;;3.60;;
74972;SDS011;63529;56.320;43.990;2023-04-25T04:45:01;24.88;;;4.10;;
74972;SDS011;63529;56.320;43.990;2023-04-25T04:47:54;14.95;;;3.20;;
74972;SDS011;63529;56.320;43.990;2023-04-25T04:50:36;24.25;;;3.53;;
74972;SDS011;63529;56.320;43.990;2023-04-25T04:53:08;18.05;;;3.03;;
74972;SDS011;63529;56.320;43.990;2023-04-25T04:55:34;14.93;;;3.05;;
74972;SDS011;63529;56.320;43.990;2023-04-25T05:01:03;8.50;;;2.78;;
74972;SDS011;63529;56.320;43.990;2023-04-25T05:03:48;29.85;;;5.90;;
74972;SDS011;63529;56.320;43.990;2023-04-25T05:06:44;26.20;;;3.70;;
74972;SDS011;63529;56.320;43.990;2023-04-25T05:09:33;24.50;;;4.38;;
74972;SDS011;63529;56.320;43.990;2023-04-25T05:12:17;17.58;;;3.53;;
74972;SDS011;63529;56.320;43.990;2023-04-25T05:14:46;20.63;;;3.30;;
74972;SDS011;63529;56.320;43.990;2023-04-25T05:17:34;14.10;;;2.95;;
74972;SDS011;63529;56.320;43.990;2023-04-25T05:20:32;28.35;;;4.63;;
74972;SDS011;63529;56.320;43.990;2023-04-25T05:23:00;15.93;;;3.35;;
74972;SDS011;63529;56.320;43.990;2023-04-25T05:25:52;18.73;;;3.20;;
74972;SDS011;63529;56.320;43.990;2023-04-25T05:28:31;12.73;;;2.72;;
74972;SDS011;63529;56.320;43.990;2023-04-25T05:31:09;17.90;;;3.03;;
74972;SDS011;63529;56.320;43.990;2023-04-25T05:33:44;15.30;;;4.40;;
74972;SDS011;63529;56.320;43.990;2023-04-25T05:36:10;8.57;;;1.90;;
74972;SDS011;63529;56.320;43.990;2023-04-25T05:38:37;10.20;;;2.55;;
74972;SDS011;63529;56.320;43.990;2023-04-25T05:41:23;12.32;;;2.78;;
74972;SDS011;63529;56.320;43.990;2023-04-25T05:44:18;10.30;;;2.65;;
74972;SDS011;63529;56.320;43.990;2023-04-25T05:47:00;6.50;;;2.00;;
74972;SDS011;63529;56.320;43.990;2023-04-25T05:49:41;8.70;;;2.30;;
74972;SDS011;63529;56.320;43.990;2023-04-25T05:52:32;5.80;;;1.92;;
74972;SDS011;63529;56.320;43.990;2023-04-25T05:55:06;9.15;;;2.40;;
74972;SDS011;63529;56.320;43.990;2023-04-25T05:57:33;12.13;;;2.53;;
74972;SDS011;63529;56.320;43.990;2023-04-25T05:59:59;9.30;;;2.22;;
74972;SDS011;63529;56.320;43.990;2023-04-25T06:02:38;9.60;;;2.50;;
74972;SDS011;63529;56.320;43.990;2023-04-25T06:05:04;13.40;;;2.50;;
74972;SDS011;63529;56.320;43.990;2023-04-25T06:07:30;15.63;;;2.75;;
74972;SDS011;63529;56.320;43.990;2023-04-25T06:09:57;18.98;;;2.70;;
74972;SDS011;63529;56.320;43.990;2023-04-25T06:12:24;11.20;;;2.08;;
74972;SDS011;63529;56.320;43.990;2023-04-25T06:14:51;8.98;;;1.73;;
74972;SDS011;63529;56.320;43.990;2023-04-25T06:17:17;6.00;;;1.83;;
74972;SDS011;63529;56.320;43.990;2023-04-25T06:19:43;3.10;;;1.63;;
74972;SDS011;63529;56.320;43.990;2023-04-25T06:22:09;2.20;;;1.50;;
74972;SDS011;63529;56.320;43.990;2023-04-25T06:24:37;3.78;;;2.47;;
74972;SDS011;63529;56.320;43.990;2023-04-25T06:27:03;3.83;;;1.98;;
74972;SDS011;63529;56.320;43.990;2023-04-25T06:29:29;3.75;;;1.67;;
74972;SDS011;63529;56.320;43.990;2023-04-25T06:31:55;5.75;;;2.20;;
74972;SDS011;63529;56.320;43.990;2023-04-25T06:34:22;11.88;;;2.00;;
74972;SDS011;63529;56.320;43.990;2023-04-25T06:36:48;9.18;;;2.05;;
74972;SDS011;63529;56.320;43.990;2023-04-25T06:39:15;10.32;;;2.05;;
74972;SDS011;63529;56.320;43.990;2023-04-25T06:41:41;6.78;;;1.77;;
74972;SDS011;63529;56.320;43.990;2023-04-25T06:44:22;12.63;;;2.33;;
74972;SDS011;63529;56.320;43.990;2023-04-25T06:46:51;10.05;;;1.70;;
74972;SDS011;63529;56.320;43.990;2023-04-25T06:49:17;13.63;;;2.20;;
74972;SDS011;63529;56.320;43.990;2023-04-25T06:51:44;6.72;;;2.03;;
74972;SDS011;63529;56.320;43.990;2023-04-25T06:54:09;5.43;;;1.75;;
74972;SDS011;63529;56.320;43.990;2023-04-25T06:56:43;11.77;;;2.35;;
74972;SDS011;63529;56.320;43.990;2023-04-25T06:59:12;6.22;;;1.60;;
74972;SDS011;63529;56.320;43.990;2023-04-25T07:01:39;81.57;;;6.47;;
74972;SDS011;63529;56.320;43.990;2023-04-25T07:04:14;23.15;;;1.95;;
74972;SDS011;63529;56.320;43.990;2023-04-25T07:06:46;11.80;;;2.00;;
74972;SDS011;63529;56.320;43.990;2023-04-25T07:09:15;9.50;;;2.00;;
74972;SDS011;63529;56.320;43.990;2023-04-25T07:11:45;6.10;;;1.88;;
74972;SDS011;63529;56.320;43.990;2023-04-25T07:14:11;7.38;;;2.30;;
74972;SDS011;63529;56.320;43.990;2023-04-25T07:16:37;23.33;;;2.45;;
74972;SDS011;63529;56.320;43.990;2023-04-25T07:19:02;7.88;;;2.13;;
74972;SDS011;63529;56.320;43.990;2023-04-25T07:21:28;11.95;;;2.33;;
74972;SDS011;63529;56.320;43.990;2023-04-25T07:23:59;6.30;;;1.90;;
74972;SDS011;63529;56.320;43.990;2023-04-25T07:26:30;23.00;;;3.13;;
74972;SDS011;63529;56.320;43.990;2023-04-25T07:29:14;6.55;;;1.98;;
74972;SDS011;63529;56.320;43.990;2023-04-25T07:34:08;8.00;;;1.77;;
74972;SDS011;63529;56.320;43.990;2023-04-25T07:36:34;6.03;;;2.50;;
74972;SDS011;63529;56.320;43.990;2023-04-25T07:39:00;9.45;;;1.92;;
74972;SDS011;63529;56.320;43.990;2023-04-25T07:41:26;4.25;;;2.13;;
74972;SDS011;63529;56.320;43.990;2023-04-25T07:43:52;4.88;;;1.60;;
74972;SDS011;63529;56.320;43.990;2023-04-25T07:46:19;5.85;;;2.00;;
74972;SDS011;63529;56.320;43.990;2023-04-25T07:48:45;8.93;;;2.13;;
74972;SDS011;63529;56.320;43.990;2023-04-25T07:51:11;7.88;;;1.60;;
74972;SDS011;63529;56.320;43.990;2023-04-25T07:53:38;6.13;;;1.50;;
74972;SDS011;63529;56.320;43.990;2023-04-25T07:56:09;4.60;;;1.80;;
74972;SDS011;63529;56.320;43.990;2023-04-25T07:58:37;11.07;;;1.60;;
74972;SDS011;63529;56.320;43.990;2023-04-25T08:01:06;8.75;;;1.92;;
74972;SDS011;63529;56.320;43.990;2023-04-25T08:03:52;8.85;;;1.80;;
74972;SDS011;63529;56.320;43.990;2023-04-25T08:06:22;7.32;;;1.80;;
74972;SDS011;63529;56.320;43.990;2023-04-25T08:08:57;5.43;;;1.50;;
74972;SDS011;63529;56.320;43.990;2023-04-25T08:11:31;15.13;;;1.77;;
74972;SDS011;63529;56.320;43.990;2023-04-25T08:13:57;5.20;;;1.67;;
74972;SDS011;63529;56.320;43.990;2023-04-25T08:16:23;8.85;;;1.60;;
74972;SDS011;63529;56.320;43.990;2023-04-25T08:18:50;3.30;;;1.40;;
74972;SDS011;63529;56.320;43.990;2023-04-25T08:21:16;5.38;;;1.75;;
74972;SDS011;63529;56.320;43.990;2023-04-25T08:23:43;10.65;;;2.45;;
74972;SDS011;63529;56.320;43.990;2023-04-25T08:26:16;4.50;;;1.88;;
74972;SDS011;63529;56.320;43.990;2023-04-25T08:28:42;6.03;;;1.70;;
74972;SDS011;63529;56.320;43.990;2023-04-25T08:31:08;3.60;;;1.40;;
74972;SDS011;63529;56.320;43.990;2023-04-25T08:33:46;5.97;;;1.60;;
74972;SDS011;63529;56.320;43.990;2023-04-25T08:36:26;10.32;;;1.88;;
74972;SDS011;63529;56.320;43.990;2023-04-25T08:38:53;4.10;;;1.50;;
74972;SDS011;63529;56.320;43.990;2023-04-25T08:41:20;7.93;;;1.67;;
74972;SDS011;63529;56.320;43.990;2023-04-25T08:43:48;4.30;;;1.50;;
74972;SDS011;63529;56.320;43.990;2023-04-25T08:46:17;8.35;;;1.70;;
74972;SDS011;63529;56.320;43.990;2023-04-25T08:48:56;8.52;;;1.60;;
74972;SDS011;63529;56.320;43.990;2023-04-25T08:51:26;5.22;;;1.63;;
74972;SDS011;63529;56.320;43.990;2023-04-25T08:54:04;11.88;;;2.65;;
74972;SDS011;63529;56.320;43.990;2023-04-25T08:56:34;6.85;;;1.48;;
74972;SDS011;63529;56.320;43.990;2023-04-25T08:59:01;21.15;;;2.22;;
74972;SDS011;63529;56.320;43.990;2023-04-25T09:01:28;11.38;;;2.05;;
74972;SDS011;63529;56.320;43.990;2023-04-25T09:03:54;20.67;;;2.67;;
74972;SDS011;63529;56.320;43.990;2023-04-25T09:06:22;6.13;;;1.90;;
74972;SDS011;63529;56.320;43.990;2023-04-25T09:08:49;5.70;;;1.80;;
74972;SDS011;63529;56.320;43.990;2023-04-25T09:11:15;7.68;;;1.75;;
74972;SDS011;63529;56.320;43.990;2023-04-25T09:13:42;9.75;;;1.95;;
74972;SDS011;63529;56.320;43.990;2023-04-25T09:16:24;15.88;;;2.40;;
74972;SDS011;63529;56.320;43.990;2023-04-25T09:19:13;11.45;;;2.17;;
74972;SDS011;63529;56.320;43.990;2023-04-25T09:21:48;22.73;;;3.13;;
74972;SDS011;63529;56.320;43.990;2023-04-25T09:24:15;8.75;;;2.13;;
74972;SDS011;63529;56.320;43.990;2023-04-25T09:26:41;5.30;;;1.92;;
74972;SDS011;63529;56.320;43.990;2023-04-25T09:29:07;14.20;;;3.55;;
74972;SDS011;63529;56.320;43.990;2023-04-25T09:31:34;12.38;;;2.33;;
74972;SDS011;63529;56.320;43.990;2023-04-25T09:39:35;10.85;;;1.90;;
74972;SDS011;63529;56.320;43.990;2023-04-25T09:42:12;5.93;;;2.03;;
74972;SDS011;63529;56.320;43.990;2023-04-25T09:44:46;15.80;;;2.30;;
74972;SDS011;63529;56.320;43.990;2023-04-25T09:47:14;4.68;;;1.75;;
74972;SDS011;63529;56.320;43.990;2023-04-25T09:49:43;8.35;;;2.08;;
74972;SDS011;63529;56.320;43.990;2023-04-25T09:52:15;4.82;;;1.80;;
74972;SDS011;63529;56.320;43.990;2023-04-25T09:57:33;6.80;;;1.75;;
74972;SDS011;63529;56.320;43.990;2023-04-25T10:02:40;4.22;;;2.10;;
74972;SDS011;63529;56.320;43.990;2023-04-25T10:05:11;7.07;;;2.13;;
74972;SDS011;63529;56.320;43.990;2023-04-25T10:07:39;10.50;;;2.53;;
74972;SDS011;63529;56.320;43.990;2023-04-25T10:10:13;11.73;;;2.50;;
74972;SDS011;63529;56.320;43.990;2023-04-25T10:12:40;3.28;;;2.28;;
74972;SDS011;63529;56.320;43.990;2023-04-25T10:15:09;4.85;;;2.30;;
74972;SDS011;63529;56.320;43.990;2023-04-25T10:17:36;8.23;;;1.90;;
74972;SDS011;63529;56.320;43.990;2023-04-25T10:20:02;9.32;;;2.00;;
74972;SDS011;63529;56.320;43.990;2023-04-25T10:22:37;4.85;;;2.05;;
74972;SDS011;63529;56.320;43.990;2023-04-25T10:25:06;9.05;;;2.05;;
74972;SDS011;63529;56.320;43.990;2023-04-25T10:27:33;4.70;;;2.08;;
74972;SDS011;63529;56.320;43.990;2023-04-25T10:30:00;7.43;;;2.30;;
74972;SDS011;63529;56.320;43.990;2023-04-25T10:32:32;14.15;;;2.42;;
74972;SDS011;63529;56.320;43.990;2023-04-25T10:35:09;8.43;;;2.30;;
74972;SDS011;63529;56.320;43.990;2023-04-25T10:37:38;4.05;;;2.10;;
74972;SDS011;63529;56.320;43.990;2023-04-25T10:40:10;11.88;;;2.45;;
74972;SDS011;63529;56.320;43.990;2023-04-25T10:42:36;8.05;;;2.20;;
74972;SDS011;63529;56.320;43.990;2023-04-25T10:45:05;10.77;;;2.30;;
74972;SDS011;63529;56.320;43.990;2023-04-25T10:47:35;14.60;;;2.22;;
74972;SDS011;63529;56.320;43.990;2023-04-25T10:50:06;4.63;;;2.10;;
74972;SDS011;63529;56.320;43.990;2023-04-25T10:52:33;7.07;;;2.30;;
74972;SDS011;63529;56.320;43.990;2023-04-25T10:55:00;8.48;;;2.40;;
74972;SDS011;63529;56.320;43.990;2023-04-25T11:00:07;9.80;;;1.98;;
74972;SDS011;63529;56.320;43.990;2023-04-25T11:02:37;15.15;;;2.22;;
74972;SDS011;63529;56.320;43.990;2023-04-25T11:05:08;11.77;;;2.13;;
74972;SDS011;63529;56.320;43.990;2023-04-25T11:07:44;4.47;;;1.80;;
74972;SDS011;63529;56.320;43.990;2023-04-25T11:10:11;6.60;;;2.35;;
74972;SDS011;63529;56.320;43.990;2023-04-25T11:12:37;10.05;;;2.35;;
74972;SDS011;63529;56.320;43.990;2023-04-25T11:15:06;5.47;;;1.77;;
74972;SDS011;63529;56.320;43.990;2023-04-25T11:17:33;12.02;;;2.03;;
74972;SDS011;63529;56.320;43.990;2023-04-25T11:19:59;4.68;;;1.95;;
74972;SDS011;63529;56.320;43.990;2023-04-25T11:22:26;14.15;;;2.75;;
74972;SDS011;63529;56.320;43.990;2023-04-25T11:24:53;5.80;;;1.90;;
74972;SDS011;63529;56.320;43.990;2023-04-25T11:27:19;9.32;;;2.17;;
74972;SDS011;63529;56.320;43.990;2023-04-25T11:29:46;10.00;;;2.30;;
74972;SDS011;63529;56.320;43.990;2023-04-25T11:32:14;16.40;;;2.30;;
74972;SDS011;63529;56.320;43.990;2023-04-25T11:34:42;37.35;;;4.40;;
74972;SDS011;63529;56.320;43.990;2023-04-25T11:37:10;8.52;;;2.33;;
74972;SDS011;63529;56.320;43.990;2023-04-25T11:39:38;6.25;;;2.20;;
74972;SDS011;63529;56.320;43.990;2023-04-25T11:42:04;5.15;;;2.40;;
74972;SDS011;63529;56.320;43.990;2023-04-25T11:44:31;7.97;;;2.10;;
74972;SDS011;63529;56.320;43.990;2023-04-25T11:46:57;5.85;;;2.65;;
74972;SDS011;63529;56.320;43.990;2023-04-25T11:49:23;5.07;;;1.80;;
74972;SDS011;63529;56.320;43.990;2023-04-25T11:51:50;10.13;;;2.25;;
74972;SDS011;63529;56.320;43.990;2023-04-25T11:54:16;7.13;;;2.85;;
74972;SDS011;63529;56.320;43.990;2023-04-25T11:56:42;7.00;;;2.13;;
74972;SDS011;63529;56.320;43.990;2023-04-25T11:59:10;9.00;;;2.42;;
74972;SDS011;63529;56.320;43.990;2023-04-25T12:01:38;5.65;;;2.33;;
74972;SDS011;63529;56.320;43.990;2023-04-25T12:04:10;12.43;;;2.50;;
74972;SDS011;63529;56.320;43.990;2023-04-25T12:06:40;14.35;;;2.70;;
74972;SDS011;63529;56.320;43.990;2023-04-25T12:09:08;7.60;;;2.22;;
74972;SDS011;63529;56.320;43.990;2023-04-25T12:11:45;9.15;;;2.47;;
74972;SDS011;63529;56.320;43.990;2023-04-25T12:14:24;5.95;;;2.33;;
74972;SDS011;63529;56.320;43.990;2023-04-25T12:16:53;7.63;;;1.88;;
74972;SDS011;63529;56.320;43.990;2023-04-25T12:19:21;7.28;;;2.78;;
74972;SDS011;63529;56.320;43.990;2023-04-25T12:21:47;12.02;;;2.70;;
74972;SDS011;63529;56.320;43.990;2023-04-25T12:24:16;12.30;;;2.55;;
74972;SDS011;63529;56.320;43.990;2023-04-25T12:26:49;11.52;;;2.83;;
74972;SDS011;63529;56.320;43.990;2023-04-25T12:29:22;9.85;;;2.30;;
74972;SDS011;63529;56.320;43.990;2023-04-25T12:31:49;10.23;;;2.80;;
74972;SDS011;63529;56.320;43.990;2023-04-25T12:34:17;9.13;;;3.03;;
74972;SDS011;63529;56.320;43.990;2023-04-25T12:36:43;10.27;;;2.30;;
74972;SDS011;63529;56.320;43.990;2023-04-25T12:39:14;12.88;;;2.40;;
74972;SDS011;63529;56.320;43.990;2023-04-25T12:41:50;12.75;;;2.13;;
74972;SDS011;63529;56.320;43.990;2023-04-25T12:44:20;13.10;;;2.72;;
74972;SDS011;63529;56.320;43.990;2023-04-25T12:46:48;8.20;;;1.73;;
74972;SDS011;63529;56.320;43.990;2023-04-25T12:49:15;17.23;;;2.97;;
74972;SDS011;63529;56.320;43.990;2023-04-25T12:51:41;8.77;;;1.90;;
74972;SDS011;63529;56.320;43.990;2023-04-25T12:54:07;16.55;;;2.53;;
74972;SDS011;63529;56.320;43.990;2023-04-25T12:56:33;14.02;;;2.47;;
74972;SDS011;63529;56.320;43.990;2023-04-25T12:59:00;14.82;;;1.92;;
74972;SDS011;63529;56.320;43.990;2023-04-25T13:01:27;12.27;;;2.10;;
74972;SDS011;63529;56.320;43.990;2023-04-25T13:03:53;10.77;;;1.80;;
74972;SDS011;63529;56.320;43.990;2023-04-25T13:06:19;9.95;;;2.10;;
74972;SDS011;63529;56.320;43.990;2023-04-25T13:08:46;6.78;;;2.20;;
74972;SDS011;63529;56.320;43.990;2023-04-25T13:11:12;7.63;;;1.90;;
74972;SDS011;63529;56.320;43.990;2023-04-25T13:13:40;6.18;;;1.95;;
74972;SDS011;63529;56.320;43.990;2023-04-25T13:16:07;10.07;;;2.10;;
74972;SDS011;63529;56.320;43.990;2023-04-25T13:18:34;4.97;;;1.73;;
74972;SDS011;63529;56.320;43.990;2023-04-25T13:21:00;5.20;;;2.10;;
74972;SDS011;63529;56.320;43.990;2023-04-25T13:23:26;6.30;;;3.35;;
74972;SDS011;63529;56.320;43.990;2023-04-25T13:25:53;6.68;;;2.80;;
74972;SDS011;63529;56.320;43.990;2023-04-25T13:28:20;4.18;;;2.28;;
74972;SDS011;63529;56.320;43.990;2023-04-25T13:30:46;4.82;;;2.58;;
74972;SDS011;63529;56.320;43.990;2023-04-25T13:33:13;17.30;;;8.00;;
74972;SDS011;63529;56.320;43.990;2023-04-25T13:35:40;13.73;;;8.25;;
74972;SDS011;63529;56.320;43.990;2023-04-25T13:38:07;17.60;;;7.85;;
74972;SDS011;63529;56.320;43.990;2023-04-25T13:40:34;11.93;;;7.45;;
74972;SDS011;63529;56.320;43.990;2023-04-25T13:43:00;13.93;;;8.45;;
74972;SDS011;63529;56.320;43.990;2023-04-25T13:45:27;3.70;;;2.17;;
74972;SDS011;63529;56.320;43.990;2023-04-25T13:47:53;4.22;;;1.90;;
74972;SDS011;63529;56.320;43.990;2023-04-25T13:50:18;3.97;;;2.10;;
74972;SDS011;63529;56.320;43.990;2023-04-25T13:52:45;5.50;;;2.30;;
74972;SDS011;63529;56.320;43.990;2023-04-25T13:55:11;7.57;;;2.88;;
74972;SDS011;63529;56.320;43.990;2023-04-25T13:57:38;3.72;;;2.25;;
74972;SDS011;63529;56.320;43.990;2023-04-25T14:00:04;5.60;;;1.92;;
74972;SDS011;63529;56.320;43.990;2023-04-25T14:02:34;5.45;;;2.45;;
74972;SDS011;63529;56.320;43.990;2023-04-25T14:05:01;4.90;;;2.30;;
74972;SDS011;63529;56.320;43.990;2023-04-25T14:07:28;6.40;;;2.40;;
74972;SDS011;63529;56.320;43.990;2023-04-25T14:09:55;5.68;;;2.58;;
74972;SDS011;63529;56.320;43.990;2023-04-25T14:12:24;4.75;;;2.40;;
74972;SDS011;63529;56.320;43.990;2023-04-25T14:14:51;5.25;;;2.45;;
74972;SDS011;63529;56.320;43.990;2023-04-25T14:17:18;7.10;;;2.70;;
74972;SDS011;63529;56.320;43.990;2023-04-25T14:19:44;5.88;;;2.60;;
74972;SDS011;63529;56.320;43.990;2023-04-25T14:22:13;4.43;;;2.60;;
74972;SDS011;63529;56.320;43.990;2023-04-25T14:24:43;5.53;;;2.67;;
74972;SDS011;63529;56.320;43.990;2023-04-25T14:27:09;3.67;;;2.22;;
74972;SDS011;63529;56.320;43.990;2023-04-25T14:29:35;4.47;;;2.40;;
74972;SDS011;63529;56.320;43.990;2023-04-25T14:32:01;11.20;;;2.80;;
74972;SDS011;63529;56.320;43.990;2023-04-25T14:34:28;6.35;;;3.10;;
74972;SDS011;63529;56.320;43.990;2023-04-25T14:36:53;6.80;;;2.97;;
74972;SDS011;63529;56.320;43.990;2023-04-25T14:39:19;5.85;;;2.90;;
74972;SDS011;63529;56.320;43.990;2023-04-25T14:41:45;6.82;;;3.05;;
74972;SDS011;63529;56.320;43.990;2023-04-25T14:44:11;6.40;;;3.05;;
74972;SDS011;63529;56.320;43.990;2023-04-25T14:46:37;7.55;;;3.40;;
74972;SDS011;63529;56.320;43.990;2023-04-25T14:49:03;6.43;;;3.63;;
74972;SDS011;63529;56.320;43.990;2023-04-25T14:51:29;6.05;;;2.70;;
74972;SDS011;63529;56.320;43.990;2023-04-25T14:53:56;3.35;;;2.28;;
74972;SDS011;63529;56.320;43.990;2023-04-25T14:56:22;8.18;;;3.50;;
74972;SDS011;63529;56.320;43.990;2023-04-25T14:58:48;5.68;;;3.00;;
74972;SDS011;63529;56.320;43.990;2023-04-25T15:01:14;4.78;;;2.83;;
74972;SDS011;63529;56.320;43.990;2023-04-25T15:03:40;4.68;;;2.90;;
74972;SDS011;63529;56.320;43.990;2023-04-25T15:06:06;5.85;;;3.45;;